Time;durP1;ratioP1;P1;durP2;ratioP2;P2;SDS_P1;SDS_P2;PMS_P1;PMS_P2;Temp;Humidity;BMP_temperature;BMP_pressure;BME280_temperature;BME280_humidity;BME280_pressure;Samples;Min_cycle;Max_cycle;Signal;HPM_P1;HPM_P2
2021/07/16 00:01:50;;;;;;;4.83;3.53;;;;;;;23.58;87.48;97983.25;5042657;28;20226;-69
2021/07/16 00:04:17;;;;;;;4.60;4.10;;;;;;;23.12;89.87;97975.63;5040566;28;20207;-69
2021/07/16 00:06:45;;;;;;;5.43;4.00;;;;;;;23.22;89.27;97970.97;5043974;28;20207;-69
2021/07/16 00:09:12;;;;;;;4.27;3.67;;;;;;;23.30;88.81;97975.81;5044048;28;20214;-69
2021/07/16 00:11:40;;;;;;;7.70;3.37;;;;;;;23.05;91.20;97973.22;5051277;28;20221;-69
2021/07/16 00:14:08;;;;;;;6.47;3.93;;;;;;;22.71;93.07;97976.94;5048598;28;20210;-69
2021/07/16 00:16:36;;;;;;;4.20;3.67;;;;;;;23.05;91.46;97970.47;5050770;28;20209;-69
2021/07/16 00:19:03;;;;;;;8.90;4.23;;;;;;;23.04;89.66;97970.75;5042600;28;20236;-69
2021/07/16 00:21:30;;;;;;;4.87;3.70;;;;;;;23.19;88.36;97970.69;5048930;28;20708;-69
2021/07/16 00:23:58;;;;;;;4.80;3.90;;;;;;;23.11;88.43;97976.72;5042515;28;20211;-69
2021/07/16 00:26:25;;;;;;;5.17;3.43;;;;;;;23.21;87.49;97980.22;5047943;28;20213;-69
2021/07/16 00:28:52;;;;;;;4.90;3.77;;;;;;;23.13;88.31;97979.97;5042269;28;20206;-69
2021/07/16 00:31:21;;;;;;;7.63;4.00;;;;;;;23.04;87.57;97989.81;5046427;28;20699;-69
2021/07/16 00:33:48;;;;;;;8.83;3.50;;;;;;;22.72;89.99;97992.16;5041617;28;20568;-70
2021/07/16 00:36:15;;;;;;;6.23;4.10;;;;;;;22.94;88.65;97998.03;5045418;28;20212;-69
2021/07/16 00:38:44;;;;;;;5.63;4.03;;;;;;;22.88;88.66;98005.44;5045451;28;20205;-69
2021/07/16 00:41:11;;;;;;;4.63;4.00;;;;;;;22.52;90.72;98000.38;5047958;28;20226;-69
2021/07/16 00:43:38;;;;;;;6.27;4.03;;;;;;;22.64;90.99;97992.75;5044078;28;20684;-69
2021/07/16 00:46:06;;;;;;;5.17;4.00;;;;;;;22.98;91.27;97999.09;5047151;28;20205;-69
2021/07/16 00:48:34;;;;;;;5.27;4.07;;;;;;;23.16;89.69;98009.38;5043255;28;20217;-69
2021/07/16 00:51:02;;;;;;;7.57;4.30;;;;;;;23.04;93.66;98012.41;5046625;28;20226;-69
2021/07/16 00:53:29;;;;;;;7.73;5.00;;;;;;;23.46;89.58;98007.28;5045720;28;20212;-69
2021/07/16 00:55:56;;;;;;;6.37;4.60;;;;;;;23.74;87.49;98014.72;5048516;28;20209;-69
2021/07/16 00:58:24;;;;;;;7.87;4.20;;;;;;;23.58;87.29;98012.38;5048691;28;20208;-69
2021/07/16 01:00:51;;;;;;;4.40;3.97;;;;;;;23.34;89.79;98008.72;5051802;28;20253;-70
2021/07/16 01:03:18;;;;;;;7.40;4.60;;;;;;;23.61;87.26;98009.91;5044910;28;20226;-69
2021/07/16 01:05:47;;;;;;;5.23;4.30;;;;;;;23.78;87.09;98010.34;5051752;28;20214;-69
2021/07/16 01:08:14;;;;;;;7.43;4.90;;;;;;;23.86;86.94;98006.19;5047296;28;20692;-69
2021/07/16 01:10:42;;;;;;;5.33;4.37;;;;;;;23.77;86.67;98007.88;5049661;28;20219;-69
2021/07/16 01:13:13;;;;;;;7.70;5.00;;;;;;;22.99;89.31;98000.72;5046990;28;20201;-69
2021/07/16 01:15:41;;;;;;;8.50;4.30;;;;;;;22.59;92.61;98017.25;5035024;28;20240;-69
2021/07/16 01:18:09;;;;;;;6.93;4.23;;;;;;;22.91;90.47;98021.19;5045889;28;20217;-69
2021/07/16 01:20:36;;;;;;;6.93;4.20;;;;;;;22.58;90.68;98013.72;5046554;28;20222;-69
2021/07/16 01:23:11;;;;;;;4.83;4.20;;;;;;;22.99;91.00;98019.78;5045945;28;20225;-70
2021/07/16 01:25:39;;;;;;;5.23;4.67;;;;;;;23.03;88.86;98016.25;5033395;28;20201;-69
2021/07/16 01:28:07;;;;;;;6.70;4.90;;;;;;;23.32;87.77;98016.38;5054942;28;20302;-69
2021/07/16 01:30:35;;;;;;;8.50;5.57;;;;;;;23.02;89.03;98006.44;5049002;28;20218;-69
2021/07/16 01:33:05;;;;;;;5.30;4.80;;;;;;;23.33;89.22;98015.28;5053165;28;20194;-69
2021/07/16 01:35:32;;;;;;;7.23;4.57;;;;;;;23.38;89.24;98002.47;5048082;28;20210;-69
2021/07/16 01:38:00;;;;;;;6.70;5.63;;;;;;;23.50;88.95;98010.25;5054786;28;20220;-69
2021/07/16 01:40:32;;;;;;;8.60;5.63;;;;;;;22.86;92.30;98013.03;5048215;28;20222;-69
2021/07/16 01:43:00;;;;;;;7.70;5.10;;;;;;;23.02;92.44;98013.78;5051597;28;20311;-69
2021/07/16 01:45:31;;;;;;;6.73;5.37;;;;;;;23.64;88.86;98012.06;5046008;28;20582;-69
2021/07/16 01:48:00;;;;;;;8.87;5.40;;;;;;;23.58;87.89;98013.22;5050577;28;20201;-70
2021/07/16 01:50:28;;;;;;;6.43;5.77;;;;;;;23.91;86.75;98011.63;5044822;28;20233;-69
2021/07/16 01:52:55;;;;;;;9.03;6.00;;;;;;;23.66;87.16;98011.78;5049179;28;20217;-69
2021/07/16 01:55:24;;;;;;;5.30;4.60;;;;;;;23.50;88.59;98005.63;5042163;28;20207;-69
2021/07/16 01:57:54;;;;;;;7.30;5.43;;;;;;;24.02;86.04;98010.44;5046142;28;20206;-69
2021/07/16 02:00:24;;;;;;;7.13;5.07;;;;;;;23.78;86.01;98020.41;5047779;28;20254;-69
2021/07/16 02:02:52;;;;;;;8.83;5.90;;;;;;;24.19;86.04;98003.44;5043276;28;20248;-70
2021/07/16 02:05:20;;;;;;;6.37;4.77;;;;;;;24.00;85.36;98007.97;5043435;28;20621;-70
2021/07/16 02:07:49;;;;;;;6.57;4.10;;;;;;;23.88;86.45;98010.25;5046617;28;20209;-70
2021/07/16 02:10:17;;;;;;;5.13;4.27;;;;;;;23.88;87.68;98012.16;5049302;28;20714;-70
2021/07/16 02:12:44;;;;;;;6.73;4.57;;;;;;;23.83;85.92;98012.19;5045610;28;20206;-70
2021/07/16 02:15:16;;;;;;;6.03;4.07;;;;;;;23.70;87.59;98010.94;5048208;28;20221;-70
2021/07/16 02:17:44;;;;;;;3.80;3.27;;;;;;;23.86;86.57;98014.34;5040077;28;20667;-70
2021/07/16 02:20:26;;;;;;;5.53;4.10;;;;;;;23.60;86.29;98012.91;5047486;28;20215;-69
2021/07/16 02:22:55;;;;;;;7.63;4.60;;;;;;;23.87;85.85;98016.78;5041048;28;20699;-70
2021/07/16 02:25:23;;;;;;;5.97;3.80;;;;;;;23.99;84.68;98011.81;5048390;28;20680;-70
2021/07/16 02:27:52;;;;;;;7.30;4.03;;;;;;;23.91;84.95;98015.13;5047242;28;20815;-70
2021/07/16 02:30:22;;;;;;;6.27;4.17;;;;;;;23.70;85.94;98018.28;5050432;28;20222;-70
2021/07/16 02:32:49;;;;;;;5.73;4.30;;;;;;;24.13;85.36;98011.94;5042851;28;20206;-69
2021/07/16 02:35:17;;;;;;;5.80;3.63;;;;;;;23.88;85.23;98012.16;5047826;28;20202;-70
2021/07/16 02:37:45;;;;;;;4.40;3.87;;;;;;;23.38;87.12;98004.34;5043545;28;20594;-70
2021/07/16 02:40:15;;;;;;;6.47;4.03;;;;;;;23.83;86.65;98018.47;5046966;28;20245;-70
2021/07/16 02:42:43;;;;;;;6.40;3.87;;;;;;;23.60;86.15;98015.63;5043247;28;20222;-70
2021/07/16 02:45:12;;;;;;;5.13;4.27;;;;;;;23.24;88.18;98014.22;5050139;28;20663;-70
2021/07/16 02:47:41;;;;;;;4.03;3.17;;;;;;;23.51;86.01;98022.81;5042430;28;20210;-69
2021/07/16 02:50:10;;;;;;;4.77;3.20;;;;;;;23.45;86.81;98015.72;5045685;28;20268;-70
2021/07/16 02:52:37;;;;;;;4.17;3.57;;;;;;;23.69;86.42;98017.47;5047959;28;20209;-70
2021/07/16 02:55:05;;;;;;;3.87;3.30;;;;;;;23.62;86.21;98019.69;5044051;28;20206;-70
2021/07/16 02:57:32;;;;;;;7.03;3.30;;;;;;;23.60;86.21;98027.34;5046474;28;20663;-70
2021/07/16 02:59:59;;;;;;;5.30;3.37;;;;;;;23.81;87.05;98022.56;5043600;28;20206;-70
2021/07/16 03:02:29;;;;;;;7.57;3.70;;;;;;;24.02;85.72;98024.84;5045724;28;20707;-70
2021/07/16 03:04:58;;;;;;;3.73;3.20;;;;;;;23.65;85.85;98023.75;5046862;28;20210;-70
2021/07/16 03:07:25;;;;;;;6.97;3.87;;;;;;;23.97;85.17;98032.28;5045318;28;20211;-70
2021/07/16 03:09:52;;;;;;;4.87;3.80;;;;;;;23.32;87.79;98030.00;5051319;28;20205;-69
2021/07/16 03:12:19;;;;;;;4.47;3.40;;;;;;;23.99;86.25;98021.88;5043664;28;20207;-70
2021/07/16 03:14:47;;;;;;;3.27;2.83;;;;;;;24.09;85.53;98033.53;5050486;28;20203;-71
2021/07/16 03:17:14;;;;;;;5.77;3.60;;;;;;;24.34;84.17;98021.56;5042328;28;20207;-70
2021/07/16 03:19:41;;;;;;;5.00;3.27;;;;;;;24.24;83.36;98021.66;5034030;28;20206;-70
2021/07/16 03:22:12;;;;;;;4.33;3.03;;;;;;;24.17;83.86;98027.44;5042204;28;20228;-70
2021/07/16 03:24:40;;;;;;;3.73;3.43;;;;;;;23.89;84.09;98017.34;5038775;28;20209;-70
2021/07/16 03:27:07;;;;;;;3.93;3.27;;;;;;;23.28;87.88;98018.84;5041896;28;20223;-70
2021/07/16 03:29:34;;;;;;;7.80;3.23;;;;;;;23.37;88.14;98025.34;5049852;28;20202;-70
2021/07/16 03:32:02;;;;;;;3.60;3.30;;;;;;;23.53;87.70;98029.59;5041354;28;20237;-71
2021/07/16 03:34:29;;;;;;;6.03;3.37;;;;;;;23.35;87.45;98027.53;5047421;28;20213;-70
2021/07/16 03:36:56;;;;;;;6.17;3.73;;;;;;;23.22;88.78;98030.06;5046364;28;20207;-71
2021/07/16 03:39:25;;;;;;;6.27;3.70;;;;;;;22.82;90.76;98028.31;5049636;28;20288;-70
2021/07/16 03:41:52;;;;;;;4.00;3.60;;;;;;;23.09;90.54;98030.63;5046276;28;20325;-71
2021/07/16 03:44:19;;;;;;;4.07;3.60;;;;;;;23.12;90.04;98035.53;5049941;28;20230;-70
2021/07/16 03:46:47;;;;;;;4.23;3.37;;;;;;;23.46;89.40;98039.19;5045904;28;20206;-70
2021/07/16 03:49:14;;;;;;;7.37;3.83;;;;;;;23.80;88.26;98034.56;5048351;28;20215;-71
2021/07/16 03:51:41;;;;;;;5.60;3.90;;;;;;;23.93;86.51;98031.22;5044005;28;20227;-69
2021/07/16 03:54:08;;;;;;;4.90;4.30;;;;;;;23.94;87.28;98035.56;5048052;28;20210;-70
2021/07/16 03:56:37;;;;;;;5.03;4.30;;;;;;;23.83;86.48;98034.00;5047847;28;20210;-70
2021/07/16 03:59:04;;;;;;;4.63;3.53;;;;;;;24.16;86.20;98033.19;5046504;28;20206;-70
2021/07/16 04:01:31;;;;;;;4.20;3.33;;;;;;;24.05;86.13;98037.94;5044054;28;20246;-70
2021/07/16 04:03:59;;;;;;;7.40;3.87;;;;;;;24.26;84.68;98035.81;5037836;28;20235;-70
2021/07/16 04:06:26;;;;;;;5.93;4.20;;;;;;;24.11;85.01;98039.50;5042352;28;20213;-70
2021/07/16 04:09:09;;;;;;;4.90;4.00;;;;;;;24.07;85.33;98043.09;5047102;28;20203;-71
2021/07/16 04:11:38;;;;;;;3.93;3.53;;;;;;;24.27;84.43;98034.72;5041335;28;20223;-70
2021/07/16 04:14:06;;;;;;;4.07;3.67;;;;;;;24.09;84.33;98038.16;5046223;28;20210;-70
2021/07/16 04:16:33;;;;;;;4.53;3.80;;;;;;;23.86;86.95;98047.06;5047782;28;20211;-70
2021/07/16 04:19:01;;;;;;;5.33;3.97;;;;;;;24.06;85.90;98045.00;5046127;28;20286;-70
2021/07/16 04:21:28;;;;;;;4.97;3.87;;;;;;;24.49;84.97;98045.97;5046879;28;20243;-70
2021/07/16 04:23:55;;;;;;;5.17;3.50;;;;;;;24.47;84.08;98050.91;5044840;28;20249;-70
2021/07/16 04:26:22;;;;;;;4.23;3.83;;;;;;;24.69;82.51;98051.22;5045263;28;20688;-70
2021/07/16 04:28:51;;;;;;;5.50;3.70;;;;;;;24.91;82.97;98051.50;5044420;28;20214;-70
2021/07/16 04:31:18;;;;;;;4.10;3.70;;;;;;;24.28;83.76;98053.53;5043727;28;20240;-69
2021/07/16 04:33:46;;;;;;;4.13;3.63;;;;;;;24.76;83.11;98047.06;5044128;28;20218;-70
2021/07/16 04:36:15;;;;;;;4.30;3.43;;;;;;;24.60;83.53;98050.22;5042645;28;20208;-66
2021/07/16 04:38:42;;;;;;;4.37;3.60;;;;;;;24.84;81.66;98060.06;5043520;28;20753;-68
2021/07/16 04:41:09;;;;;;;4.73;4.00;;;;;;;23.94;85.33;98057.38;5043124;28;20707;-68
2021/07/16 04:43:36;;;;;;;3.47;2.90;;;;;;;24.27;84.48;98054.63;5050594;28;21011;-68
2021/07/16 04:46:05;;;;;;;4.87;3.73;;;;;;;24.67;83.62;98053.44;5043519;28;20220;-70
2021/07/16 04:48:32;;;;;;;6.53;4.00;;;;;;;24.17;84.28;98064.84;5050675;28;20729;-70
2021/07/16 04:50:59;;;;;;;5.23;3.80;;;;;;;24.33;83.27;98061.66;5043797;28;20231;-68
2021/07/16 04:53:27;;;;;;;4.80;3.97;;;;;;;24.03;85.42;98069.31;5045328;28;20207;-70
2021/07/16 04:55:54;;;;;;;5.93;3.70;;;;;;;24.25;86.16;98066.91;5047906;28;20203;-70
2021/07/16 04:58:21;;;;;;;4.73;3.77;;;;;;;24.42;82.98;98072.78;5044385;28;20211;-70
2021/07/16 05:00:48;;;;;;;3.93;3.50;;;;;;;24.54;82.99;98065.00;5047472;28;20238;-70
2021/07/16 05:03:17;;;;;;;6.53;4.53;;;;;;;25.08;80.46;98062.78;5040524;28;20234;-70
2021/07/16 05:05:44;;;;;;;4.37;3.87;;;;;;;24.79;84.55;98070.22;5046807;28;20295;-70
2021/07/16 05:08:12;;;;;;;6.10;3.87;;;;;;;23.77;88.34;98079.53;5042700;28;20225;-69
2021/07/16 05:10:39;;;;;;;5.40;3.80;;;;;;;24.78;82.56;98093.97;5038145;28;20222;-69
2021/07/16 05:13:06;;;;;;;4.57;3.53;;;;;;;24.85;82.30;98093.63;5041890;28;20204;-69
2021/07/16 05:15:33;;;;;;;4.17;3.73;;;;;;;24.68;81.18;98090.56;5044894;28;20702;-69
2021/07/16 05:18:01;;;;;;;7.20;3.10;;;;;;;24.96;81.42;98084.22;5042273;28;20212;-69
2021/07/16 05:20:29;;;;;;;6.10;4.03;;;;;;;24.54;83.04;98092.28;5044506;28;20237;-69
2021/07/16 05:22:57;;;;;;;4.03;3.60;;;;;;;25.14;80.51;98094.41;5037090;28;20229;-69
2021/07/16 05:25:24;;;;;;;5.60;3.27;;;;;;;25.71;76.61;98097.75;5043999;28;20214;-69
2021/07/16 05:27:51;;;;;;;4.03;3.27;;;;;;;24.97;80.49;98089.41;5044416;28;20390;-69
2021/07/16 05:30:19;;;;;;;4.80;4.30;;;;;;;24.30;83.54;98094.16;5045638;28;20226;-70
2021/07/16 05:32:46;;;;;;;7.23;4.60;;;;;;;24.14;84.60;98104.41;5043851;28;20209;-70
2021/07/16 05:35:14;;;;;;;7.50;4.80;;;;;;;25.40;81.21;98099.28;5037694;28;20769;-70
2021/07/16 05:37:42;;;;;;;9.83;4.67;;;;;;;24.69;84.86;98105.81;5045349;28;20232;-70
2021/07/16 05:40:11;;;;;;;5.33;3.50;;;;;;;25.45;79.90;98109.31;5040800;28;20216;-70
2021/07/16 05:42:38;;;;;;;6.77;4.77;;;;;;;24.44;84.60;98117.78;5038504;28;20211;-70
2021/07/16 05:45:06;;;;;;;6.43;4.83;;;;;;;25.11;82.68;98116.81;5043668;28;20553;-70
2021/07/16 05:47:34;;;;;;;10.33;6.63;;;;;;;24.28;86.15;98118.19;5048206;28;20209;-70
2021/07/16 05:50:01;;;;;;;10.87;6.57;;;;;;;24.69;82.95;98119.47;5042922;28;20220;-70
2021/07/16 05:52:32;;;;;;;9.37;6.47;;;;;;;24.77;84.32;98118.84;5047623;28;20210;-70
2021/07/16 05:55:00;;;;;;;10.07;5.63;;;;;;;25.57;79.03;98117.91;5045579;28;20233;-70
2021/07/16 05:57:28;;;;;;;10.17;7.17;;;;;;;25.53;80.51;98117.69;5047221;28;20238;-72
2021/07/16 05:59:55;;;;;;;11.80;7.37;;;;;;;24.30;87.14;98116.81;5052408;28;20777;-69
2021/07/16 06:02:22;;;;;;;11.40;7.40;;;;;;;23.62;90.70;98117.00;5045089;28;20205;-70
2021/07/16 06:04:49;;;;;;;8.17;5.80;;;;;;;24.88;83.41;98128.56;5048747;28;20217;-69
2021/07/16 06:07:17;;;;;;;9.13;7.23;;;;;;;24.75;85.66;98131.97;5050762;28;20202;-69
2021/07/16 06:09:45;;;;;;;10.10;6.77;;;;;;;24.90;83.10;98137.28;5048328;28;20204;-67
2021/07/16 06:12:13;;;;;;;10.07;7.37;;;;;;;25.51;79.85;98135.47;5051006;28;20307;-69
2021/07/16 06:14:41;;;;;;;10.27;7.57;;;;;;;24.05;89.87;98138.00;5047274;28;20198;-69
2021/07/16 06:17:08;;;;;;;8.67;6.83;;;;;;;24.34;87.67;98141.59;5050233;28;20209;-69
2021/07/16 06:19:36;;;;;;;8.50;7.27;;;;;;;24.94;85.59;98143.78;5046346;28;20228;-67
2021/07/16 06:22:03;;;;;;;9.97;7.53;;;;;;;24.49;85.35;98152.38;5049925;28;20241;-69
2021/07/16 06:24:31;;;;;;;9.93;6.70;;;;;;;24.21;90.08;98155.88;5045214;28;20227;-69
2021/07/16 06:26:58;;;;;;;8.77;7.47;;;;;;;23.57;94.21;98150.53;5049228;28;20228;-69
2021/07/16 06:29:28;;;;;;;10.50;7.93;;;;;;;24.60;89.51;98149.31;5043841;28;20220;-69
2021/07/16 06:31:55;;;;;;;9.50;7.73;;;;;;;23.28;96.03;98154.22;5048665;28;20229;-69
2021/07/16 06:34:22;;;;;;;9.33;7.93;;;;;;;23.94;91.19;98147.34;5044125;28;20216;-69
2021/07/16 06:36:50;;;;;;;10.53;7.93;;;;;;;24.78;86.65;98139.59;5047835;28;20659;-69
2021/07/16 06:39:17;;;;;;;9.70;7.90;;;;;;;23.72;91.39;98144.19;5041954;28;20222;-69
2021/07/16 06:41:54;;;;;;;11.47;8.17;;;;;;;24.90;89.26;98148.19;5048613;28;20218;-70
2021/07/16 06:44:21;;;;;;;9.93;7.40;;;;;;;25.69;83.36;98151.09;5049778;28;20226;-69
2021/07/16 06:46:50;;;;;;;8.37;6.90;;;;;;;25.58;85.08;98144.16;5046770;28;20202;-69
2021/07/16 06:49:20;;;;;;;7.90;6.33;;;;;;;25.06;85.39;98141.47;5048988;28;20222;-68
2021/07/16 06:51:47;;;;;;;11.70;6.40;;;;;;;25.42;82.54;98154.44;5046982;28;20229;-67
2021/07/16 06:54:14;;;;;;;7.53;6.10;;;;;;;25.80;79.26;98149.84;5040620;28;20209;-67
2021/07/16 06:56:42;;;;;;;8.30;5.97;;;;;;;24.71;84.01;98153.56;5047833;28;20198;-67
2021/07/16 06:59:12;;;;;;;7.43;5.50;;;;;;;25.67;80.51;98165.06;5048914;28;20212;-67
2021/07/16 07:01:39;;;;;;;8.80;6.63;;;;;;;26.34;76.26;98169.28;5038558;28;20230;-67
2021/07/16 07:04:08;;;;;;;9.33;6.30;;;;;;;26.89;72.63;98171.94;5044563;28;20234;-68
2021/07/16 07:06:35;;;;;;;9.17;6.40;;;;;;;26.97;71.58;98171.25;5047649;28;20207;-68
2021/07/16 07:09:03;;;;;;;7.67;5.63;;;;;;;26.31;74.58;98165.25;5047099;28;20209;-68
2021/07/16 07:11:30;;;;;;;6.77;5.70;;;;;;;27.33;70.97;98183.19;5047763;28;20237;-68
2021/07/16 07:13:58;;;;;;;6.97;6.27;;;;;;;27.17;69.73;98184.56;5051674;28;20285;-68
2021/07/16 07:16:25;;;;;;;7.07;5.77;;;;;;;27.18;69.35;98186.22;5047198;28;20210;-68
2021/07/16 07:18:52;;;;;;;6.13;5.37;;;;;;;27.23;70.91;98188.88;5044833;28;20226;-68
2021/07/16 07:21:21;;;;;;;7.33;5.87;;;;;;;25.70;80.85;98180.06;5047248;28;20233;-68
2021/07/16 07:23:48;;;;;;;9.20;6.07;;;;;;;24.89;83.11;98188.31;5043531;28;20222;-67
2021/07/16 07:26:16;;;;;;;7.17;5.80;;;;;;;25.35;78.92;98188.69;5046314;28;20216;-68
2021/07/16 07:28:43;;;;;;;7.87;6.60;;;;;;;25.57;78.40;98188.97;5041915;28;20221;-68
2021/07/16 07:31:10;;;;;;;8.17;6.37;;;;;;;25.83;76.63;98193.00;5047260;28;20288;-68
2021/07/16 07:33:38;;;;;;;7.27;6.17;;;;;;;25.09;80.77;98188.13;5041208;28;20194;-68
2021/07/16 07:36:05;;;;;;;6.70;6.00;;;;;;;26.34;74.83;98191.19;5050215;28;20229;-67
2021/07/16 07:38:35;;;;;;;9.00;6.07;;;;;;;25.63;78.21;98196.81;5048284;28;20206;-68
2021/07/16 07:41:02;;;;;;;7.03;5.57;;;;;;;26.04;77.02;98200.66;5046512;28;20265;-68
2021/07/16 07:43:30;;;;;;;5.63;5.07;;;;;;;26.25;73.16;98204.72;5047387;28;20211;-68
2021/07/16 07:45:57;;;;;;;6.00;5.27;;;;;;;25.52;77.64;98189.03;5045870;28;20217;-68
2021/07/16 07:48:24;;;;;;;6.07;5.03;;;;;;;26.03;75.54;98200.94;5046668;28;20214;-68
2021/07/16 07:50:52;;;;;;;5.63;5.03;;;;;;;26.50;71.35;98209.81;5045224;28;20221;-68
2021/07/16 07:53:19;;;;;;;5.10;4.60;;;;;;;25.55;77.62;98207.59;5045755;28;20222;-68
2021/07/16 07:55:48;;;;;;;7.50;5.27;;;;;;;26.08;73.97;98200.88;5042089;28;20202;-68
2021/07/16 07:58:15;;;;;;;6.90;5.47;;;;;;;25.98;75.06;98214.69;5045976;28;20632;-68
2021/07/16 08:00:42;;;;;;;7.60;4.80;;;;;;;27.30;68.79;98221.34;5041077;28;20241;-68
2021/07/16 08:03:11;;;;;;;5.40;4.90;;;;;;;27.25;67.93;98224.16;5038991;28;20202;-68
2021/07/16 08:05:38;;;;;;;5.10;4.60;;;;;;;26.47;72.71;98217.81;5037583;28;20226;-68
2021/07/16 08:08:06;;;;;;;6.27;4.90;;;;;;;26.02;74.62;98213.00;5052067;28;20211;-70
2021/07/16 08:10:33;;;;;;;5.17;4.67;;;;;;;26.89;69.46;98215.75;5046052;28;20715;-68
2021/07/16 08:13:04;;;;;;;5.30;4.80;;;;;;;26.98;70.28;98224.94;5049655;28;20672;-68
2021/07/16 08:15:31;;;;;;;6.10;5.17;;;;;;;26.78;70.54;98219.78;5042471;28;20196;-68
2021/07/16 08:17:58;;;;;;;6.07;4.73;;;;;;;28.06;63.00;98229.66;5032105;28;20614;-69
2021/07/16 08:20:26;;;;;;;6.13;4.70;;;;;;;26.50;68.44;98220.75;5044324;28;20236;-69
2021/07/16 08:22:53;;;;;;;6.03;4.90;;;;;;;27.45;64.16;98223.78;5051214;28;20655;-68
2021/07/16 08:25:20;;;;;;;9.17;5.57;;;;;;;27.82;62.48;98237.34;5049119;28;20230;-69
2021/07/16 08:27:48;;;;;;;7.37;5.30;;;;;;;26.95;66.23;98232.94;5051319;28;20607;-68
2021/07/16 08:30:17;;;;;;;8.63;5.70;;;;;;;27.75;61.17;98239.63;5041398;28;20229;-69
2021/07/16 08:32:44;;;;;;;5.47;4.50;;;;;;;28.52;58.39;98241.28;5049556;28;20571;-70
2021/07/16 08:35:13;;;;;;;6.53;5.20;;;;;;;27.15;65.67;98227.91;5044814;28;20201;-69
2021/07/16 08:37:40;;;;;;;7.87;5.50;;;;;;;26.14;71.78;98230.63;5049298;28;20200;-69
2021/07/16 08:40:09;;;;;;;6.17;5.33;;;;;;;26.74;67.46;98235.19;5039962;28;20753;-69
2021/07/16 08:42:37;;;;;;;6.23;5.43;;;;;;;27.12;66.84;98233.97;5042943;28;20287;-69
2021/07/16 08:45:06;;;;;;;5.20;4.70;;;;;;;28.03;60.89;98241.28;5039502;28;20244;-69
2021/07/16 08:47:34;;;;;;;5.47;4.93;;;;;;;27.33;62.31;98246.25;5047852;28;20208;-69
2021/07/16 08:50:03;;;;;;;6.03;5.00;;;;;;;27.92;60.65;98239.88;5046687;28;20566;-69
2021/07/16 08:52:31;;;;;;;5.60;4.63;;;;;;;28.28;60.07;98246.22;5046252;28;20208;-69
2021/07/16 08:55:00;;;;;;;4.73;3.47;;;;;;;26.85;61.72;98244.88;5042342;28;20568;-69
2021/07/16 08:57:28;;;;;;;5.30;4.13;;;;;;;26.83;64.17;98246.28;5044094;28;20204;-69
2021/07/16 08:59:56;;;;;;;4.13;3.23;;;;;;;28.21;59.09;98251.28;5050519;28;20286;-69
2021/07/16 09:02:26;;;;;;;4.10;3.70;;;;;;;27.64;60.39;98255.50;5043638;28;20225;-69
2021/07/16 09:05:00;;;;;;;4.70;3.90;;;;;;;26.34;66.78;98243.19;5045880;28;20224;-69
2021/07/16 09:07:27;;;;;;;4.13;3.73;;;;;;;27.30;66.02;98241.34;5042931;28;20565;-70
2021/07/16 09:10:06;;;;;;;5.47;3.50;;;;;;;27.92;59.79;98256.34;5048257;28;20212;-69
2021/07/16 09:12:35;;;;;;;4.82;3.80;;;;;;;28.16;57.65;98256.88;5043945;28;20262;-69
2021/07/16 09:15:10;;;;;;;3.38;3.08;;;;;;;28.96;54.64;98253.09;5048133;28;20202;-69
2021/07/16 09:17:42;;;;;;;4.47;3.40;;;;;;;29.18;54.73;98257.81;5038919;28;20209;-69
2021/07/16 09:20:14;;;;;;;4.72;3.08;;;;;;;28.63;55.67;98257.19;5044743;28;20261;-70
2021/07/16 09:22:41;;;;;;;10.18;4.32;;;;;;;27.90;59.78;98242.91;5031535;28;20224;-69
2021/07/16 09:25:10;;;;;;;12.65;3.85;;;;;;;28.51;58.33;98239.66;5050209;28;20236;-69
2021/07/16 09:27:39;;;;;;;4.30;3.90;;;;;;;27.13;62.99;98243.00;5054907;28;20209;-69
2021/07/16 09:30:21;;;;;;;7.40;3.83;;;;;;;27.38;61.95;98237.91;5046691;28;20300;-69
2021/07/16 09:32:51;;;;;;;3.83;3.40;;;;;;;27.21;61.68;98245.91;5048373;28;20205;-69
2021/07/16 09:35:20;;;;;;;3.87;3.23;;;;;;;26.68;64.54;98235.56;5045562;28;20205;-69
2021/07/16 09:37:49;;;;;;;3.77;3.03;;;;;;;27.55;61.63;98240.03;5053972;28;20575;-70
2021/07/16 09:40:22;;;;;;;6.57;3.13;;;;;;;27.63;59.57;98247.56;5044775;28;20231;-69
2021/07/16 09:42:49;;;;;;;3.13;2.83;;;;;;;27.69;58.54;98241.69;5052496;28;20229;-69
2021/07/16 09:45:16;;;;;;;4.43;3.13;;;;;;;27.94;58.07;98251.34;5051124;28;20232;-69
2021/07/16 09:47:43;;;;;;;3.13;2.67;;;;;;;27.94;59.45;98246.69;5052851;28;20200;-69
2021/07/16 09:50:12;;;;;;;4.70;3.37;;;;;;;27.88;58.38;98242.41;5044314;28;20209;-70
2021/07/16 09:52:40;;;;;;;4.47;2.77;;;;;;;28.09;58.39;98240.88;5041073;28;20665;-69
2021/07/16 09:55:10;;;;;;;2.53;2.33;;;;;;;28.55;56.79;98246.16;5046347;28;20201;-69
2021/07/16 09:57:41;;;;;;;3.73;2.97;;;;;;;29.64;51.71;98247.22;5048759;28;20208;-69
2021/07/16 10:00:15;;;;;;;2.67;2.30;;;;;;;29.69;49.31;98260.84;5050473;28;20214;-70
2021/07/16 10:02:44;;;;;;;2.63;2.43;;;;;;;28.03;55.23;98244.03;5032740;28;20296;-69
2021/07/16 10:05:12;;;;;;;2.73;2.37;;;;;;;27.33;60.74;98237.19;5047563;28;20630;-69
2021/07/16 10:07:42;;;;;;;3.90;2.50;;;;;;;28.28;54.40;98248.94;5040162;28;20693;-69
2021/07/16 10:10:12;;;;;;;2.33;2.13;;;;;;;27.86;55.84;98252.06;5049178;28;20208;-69
2021/07/16 10:12:42;;;;;;;3.00;2.43;;;;;;;27.47;58.38;98249.00;5047235;28;20570;-69
2021/07/16 10:15:11;;;;;;;2.37;2.17;;;;;;;26.36;63.16;98230.81;5047634;28;20662;-69
2021/07/16 10:17:39;;;;;;;2.50;2.30;;;;;;;28.13;55.81;98243.81;5040189;28;20615;-69
2021/07/16 10:20:09;;;;;;;2.08;1.88;;;;;;;29.51;51.78;98262.66;5047524;28;20205;-69
2021/07/16 10:22:37;;;;;;;2.58;2.10;;;;;;;30.29;46.87;98270.06;5045996;28;20202;-69
2021/07/16 10:25:08;;;;;;;2.70;2.13;;;;;;;29.67;48.94;98263.06;5046459;28;20226;-69
2021/07/16 10:27:36;;;;;;;2.00;1.35;;;;;;;28.39;49.21;98256.69;5046194;28;20658;-69
2021/07/16 10:30:09;;;;;;;4.07;1.77;;;;;;;29.08;47.36;98263.56;5045968;28;20208;-70
2021/07/16 10:32:44;;;;;;;2.15;1.80;;;;;;;29.98;44.44;98272.06;5046370;28;20210;-69
2021/07/16 10:35:17;;;;;;;1.70;1.45;;;;;;;29.02;47.36;98265.63;5043134;28;20205;-69
2021/07/16 10:37:45;;;;;;;1.65;1.50;;;;;;;30.75;42.90;98262.03;5050539;28;20206;-70
2021/07/16 10:40:35;;;;;;;1.73;1.40;;;;;;;29.43;45.63;98268.09;5050504;28;20209;-68
2021/07/16 10:43:40;;;;;;;1.77;1.60;;;;;;;29.17;49.44;98242.41;5043579;28;20586;-68
2021/07/16 10:46:30;;;;;;;1.95;1.77;;;;;;;29.68;49.88;98237.19;5032289;28;20226;-68
2021/07/16 10:48:57;;;;;;;3.17;1.70;;;;;;;30.83;44.83;98259.28;5046057;28;20255;-68
2021/07/16 10:51:26;;;;;;;2.65;2.17;;;;;;;29.75;46.51;98254.06;5040705;28;20714;-68
2021/07/16 10:53:53;;;;;;;2.15;1.83;;;;;;;30.56;45.23;98250.50;5042644;28;20565;-68
2021/07/16 10:56:40;;;;;;;2.60;1.60;;;;;;;30.72;44.82;98259.94;5047843;28;20202;-68
2021/07/16 10:59:07;;;;;;;1.83;1.73;;;;;;;31.71;40.63;98276.94;5044332;28;20251;-68
2021/07/16 11:01:37;;;;;;;1.98;1.30;;;;;;;30.25;43.82;98267.16;5048662;28;20256;-68
2021/07/16 11:04:07;;;;;;;1.70;1.45;;;;;;;28.97;47.55;98260.25;5044639;28;20595;-68
2021/07/16 11:06:51;;;;;;;2.25;1.67;;;;;;;28.35;50.35;98247.41;5047853;28;20226;-68
2021/07/16 11:09:40;;;;;;;1.60;1.50;;;;;;;28.82;48.62;98248.78;5049189;28;20605;-68
2021/07/16 11:12:26;;;;;;;1.50;1.40;;;;;;;28.19;52.59;98245.31;5037110;28;20234;-68
2021/07/16 11:14:54;;;;;;;1.80;1.70;;;;;;;28.29;52.14;98245.09;5044706;28;20232;-68
2021/07/16 11:17:36;;;;;;;2.10;1.40;;;;;;;29.90;47.15;98265.41;5043197;28;20210;-68
2021/07/16 11:20:14;;;;;;;1.65;1.30;;;;;;;29.02;48.12;98249.13;5047481;28;20214;-68
2021/07/16 11:22:56;;;;;;;1.98;1.50;;;;;;;29.39;46.49;98253.38;5037289;28;20281;-68
2021/07/16 11:25:24;;;;;;;1.30;1.20;;;;;;;30.61;42.63;98275.94;5040299;28;20595;-68
2021/07/16 11:27:52;;;;;;;1.45;1.35;;;;;;;31.62;38.85;98282.50;5052114;28;20284;-68
2021/07/16 11:30:20;;;;;;;1.75;1.30;;;;;;;30.62;42.64;98263.81;5041640;28;20226;-68
2021/07/16 11:32:47;;;;;;;1.23;1.13;;;;;;;30.24;43.46;98272.97;5052501;28;20198;-68
2021/07/16 11:35:14;;;;;;;2.63;1.38;;;;;;;29.85;43.07;98265.56;5039896;28;20199;-68
2021/07/16 11:37:43;;;;;;;1.10;0.95;;;;;;;30.40;41.50;98271.41;5030853;28;20210;-68
2021/07/16 11:40:13;;;;;;;2.15;1.13;;;;;;;29.80;42.98;98275.94;5042147;28;20238;-69
2021/07/16 11:42:41;;;;;;;2.35;1.00;;;;;;;30.70;42.46;98268.53;5047661;28;20203;-68